Terminal Aerodrome Forecast
Issued by NWS

Home | Current Version | Previous Version | Text Only | Print | Product List | Glossary On
Versions: 1 2 3 4 5 6 7 8 9 10 11 12 13 14 15 16 17
000
FTUS45 KLKN 210520
TAFEKO
TAF
KEKO 210520Z 2106/2206 22006KT 4SM RA BKN030 OVC040
     FM211200 23007KT P6SM -SHRA BKN035 OVC050
     FM220100 26005KT P6SM VCSH BKN040 BKN050=

USA.gov is the U.S. government's official web portal to all federal, state and local government web resources and services.